Latest Weather Observations for Young

IDN60801

Issued at 11:06 am EDT Thursday 29 January 2015 (issued every 30 minutes, with the page automatically refreshed every 10 minutes)

About weather observations | Map of weather stations | Latest weather observations for NSW | Other Formats
Station Details ID: 073138 Name: YOUNG AIRPORT Lat: -34.25 Lon: 148.25 Height: 379.6 m
Data from the previous 72 hours. | See also: Recent months at Young
Date/Time
EDT
Temp
°C
App
Temp
°C
Dew
Point
Rel
Hum
%
Delta-T
°C
Wind Press
QNH
hPa
Press
MSL
hPa
Rain
since 9 am
mm
Dir
 
Spd
km/h
Gust
km/h
Spd
kts
Gust
kts
29/11:00am 19.1 15.5 4.8 39 7.0 ESE 13 24 7 13 1015.2 1013.3 0.0
29/10:30am 18.6 14.5 6.1 44 6.3 SE 17 24 9 13 1015.3 1013.4 0.0
29/10:00am 17.2 13.1 6.4 49 5.4 SE 17 22 9 12 1015.2 1013.3 0.0
29/09:30am 16.3 11.6 6.2 51 5.0 SE 20 30 11 16 1015.5 1013.6 0.0
29/09:00am 16.2 12.1 6.3 52 4.9 SE 17 26 9 14 1015.3 1013.4 0.0
29/08:30am 14.8 11.1 6.4 57 4.1 ESE 15 20 8 11 1015.2 1013.3 0.0
29/08:00am 14.3 11.3 7.6 64 3.4 SE 13 20 7 11 1015.1 1013.2 0.0
29/07:30am 13.7 11.3 8.5 71 2.7 SE 11 20 6 11 1014.8 1012.8 0.0
29/07:00am 12.6 10.6 8.5 76 2.1 SSE 9 11 5 6 1014.5 1012.6 0.0
29/06:30am 12.1 10.3 8.0 76 2.1 SE 7 9 4 5 1014.1 1012.2 0.0
29/06:00am 12.6 10.4 7.9 73 2.4 SE 9 13 5 7 1014.1 1012.2 0.0
29/05:30am 13.0 10.9 8.1 72 2.5 SE 9 15 5 8 1014.0 1012.1 0.0
29/05:00am 13.1 10.6 8.0 71 2.6 SE 11 19 6 10 1013.8 1011.9 0.0
29/04:30am 13.8 11.3 8.2 69 2.8 ESE 11 20 6 11 1013.7 1011.8 0.0
29/04:00am 13.8 10.9 8.2 69 2.8 SE 13 20 7 11 1013.7 1011.8 0.0
29/03:30am 13.9 11.0 8.3 69 2.9 ESE 13 24 7 13 1013.7 1011.8 0.0
29/03:00am 14.0 10.8 8.4 69 2.9 ESE 15 20 8 11 1013.8 1011.9 0.0
29/02:30am 14.4 11.6 8.6 68 3.0 ESE 13 20 7 11 1014.1 1012.2 0.0
29/02:00am 14.0 11.2 8.4 69 2.9 SE 13 19 7 10 1014.3 1012.4 0.0
29/01:30am 14.2 11.4 8.4 68 3.0 ESE 13 28 7 15 1014.5 1012.6 0.0
29/01:00am 14.8 11.9 8.1 64 3.4 ESE 13 20 7 11 1014.8 1012.8 0.0
29/12:30am 14.7 11.8 8.0 64 3.4 SE 13 22 7 12 1014.9 1013.0 0.0
29/12:00am 15.0 12.1 8.0 63 3.6 ESE 13 20 7 11 1014.9 1013.0 0.0
 
Date/Time
EDT
Temp
°C
App
Temp
°C
Dew
Point
Rel
Hum
%
Delta-T
°C
Wind Press
QNH
hPa
Press
MSL
hPa
Rain
since 9 am
mm
Dir
 
Spd
km/h
Gust
km/h
Spd
kts
Gust
kts
28/11:30pm 15.2 13.0 8.0 62 3.7 ESE 9 20 5 11 1014.9 1013.0 0.0
28/11:00pm 15.2 12.3 8.0 62 3.7 ESE 13 20 7 11 1014.9 1013.0 0.0
28/10:30pm 15.7 11.6 8.0 60 3.9 ESE 19 32 10 17 1014.9 1013.0 0.0
28/10:00pm 16.3 11.8 8.5 60 4.1 ESE 22 33 12 18 1014.8 1012.8 0.0
28/09:30pm 17.2 12.4 8.9 58 4.4 ESE 24 43 13 23 1014.4 1012.5 0.0
28/09:00pm 18.3 15.2 10.4 60 4.3 ESE 17 24 9 13 1013.8 1011.9 0.0
28/08:30pm 18.6 16.4 10.7 60 4.3 ESE 13 19 7 10 1013.6 1011.7 0.0
28/08:00pm 19.2 17.2 11.5 61 4.3 E 13 19 7 10 1013.1 1011.2 0.0
28/07:30pm 20.1 17.7 11.3 57 4.9 E 15 24 8 13 1013.0 1011.1 0.0
28/07:00pm 20.9 20.6 12.6 59 4.8 E 6 19 3 10 1012.7 1010.8 0.0
28/06:30pm 21.8 17.9 9.3 45 6.8 ESE 20 32 11 17 1012.0 1010.0 0.0
28/06:00pm 23.4 20.3 9.0 40 7.9 SSE 15 24 8 13 1011.6 1009.7 0.0
28/05:30pm 24.1 20.6 8.9 38 8.3 SE 17 20 9 11 1011.5 1009.6 0.0
28/05:00pm 24.0 19.9 8.8 38 8.3 ESE 20 32 11 17 1011.7 1009.8 0.0
28/04:30pm 24.6 20.7 8.5 36 8.8 ESE 19 32 10 17 1011.8 1009.9 0.0
28/04:00pm 25.6 21.9 10.2 38 8.7 SSE 20 35 11 19 1011.8 1009.9 0.0
28/03:30pm 25.4 21.9 10.8 40 8.3 ESE 20 33 11 18 1012.2 1010.2 0.0
28/03:00pm 23.2 20.1 10.3 44 7.2 SE 17 24 9 13 1012.6 1010.7 0.0
28/02:30pm 23.0 19.4 9.8 43 7.3 ESE 19 30 10 16 1012.8 1010.9 0.0
28/02:00pm 23.0 19.3 9.4 42 7.5 ESE 19 26 10 14 1013.0 1011.1 0.0
28/01:30pm 23.0 19.4 9.8 43 7.3 ESE 19 30 10 16 1013.4 1011.5 0.0
28/01:00pm 22.9 19.5 10.7 46 6.9 ESE 19 28 10 15 1013.6 1011.7 0.0
28/12:30pm 22.2 17.8 10.4 47 6.6 SE 24 35 13 19 1013.9 1012.0 0.0
28/12:00pm 22.0 17.6 10.5 48 6.4 SE 24 35 13 19 1013.7 1011.8 0.0
28/11:30am 21.3 16.9 10.5 50 6.0 ESE 24 39 13 21 1013.9 1012.0 0.0
28/11:00am 21.1 17.2 10.9 52 5.7 ESE 22 32 12 17 1013.9 1012.0 0.0
28/10:30am 20.5 17.0 10.9 54 5.3 E 20 35 11 19 1013.8 1011.9 0.0
28/10:00am 19.6 15.3 10.9 57 4.8 SE 24 35 13 19 1014.0 1012.1 0.0
28/09:30am 18.9 14.3 11.0 60 4.4 E 26 35 14 19 1013.8 1011.9 0.0
28/09:00am 18.5 15.1 11.1 62 4.1 ESE 20 37 11 20 1013.9 1012.0 0.0
28/08:30am 18.7 13.9 11.8 64 3.9 ESE 28 41 15 22 1013.7 1011.8 0.0
28/08:00am 17.0 13.0 11.7 71 2.9 SE 24 39 13 21 1013.3 1011.4 0.0
28/07:30am 16.6 13.6 11.9 74 2.6 SE 19 30 10 16 1013.0 1011.1 0.0
28/07:00am 15.7 13.7 11.5 76 2.3 SE 13 20 7 11 1012.6 1010.7 0.0
28/06:30am 15.9 12.7 11.3 74 2.5 SE 19 28 10 15 1012.5 1010.6 0.0
28/06:00am 15.7 13.3 11.3 75 2.4 ESE 15 28 8 15 1012.2 1010.2 0.0
28/05:30am 15.5 12.7 11.5 77 2.2 SE 17 26 9 14 1012.0 1010.0 0.0
28/05:00am 15.2 13.4 11.0 76 2.3 SSE 11 20 6 11 1011.8 1009.9 0.0
28/04:30am 15.3 11.9 11.1 76 2.3 SSE 20 28 11 15 1011.7 1009.8 0.0
28/04:00am 15.4 12.6 11.2 76 2.3 ESE 17 24 9 13 1011.5 1009.6 0.0
28/03:30am 15.7 11.9 11.3 75 2.4 ESE 22 32 12 17 1011.5 1009.6 0.0
28/03:00am 15.9 12.8 11.7 76 2.3 ESE 19 28 10 15 1011.7 1009.8 0.0
28/02:30am 16.0 13.4 12.0 77 2.2 SE 17 28 9 15 1011.8 1009.9 0.0
28/02:00am 16.4 13.5 12.2 76 2.3 SE 19 30 10 16 1011.8 1009.9 0.0
28/01:30am 16.6 14.2 12.8 78 2.1 ESE 17 26 9 14 1012.2 1010.2 0.0
28/01:00am 16.6 13.7 12.2 75 2.5 ESE 19 30 10 16 1012.3 1010.3 0.0
28/12:30am 16.6 14.0 11.9 74 2.6 ESE 17 28 9 15 1012.4 1010.4 0.0
28/12:00am 16.6 14.1 12.2 75 2.5 ESE 17 24 9 13 1012.4 1010.4 0.0
 
Date/Time
EDT
Temp
°C
App
Temp
°C
Dew
Point
Rel
Hum
%
Delta-T
°C
Wind Press
QNH
hPa
Press
MSL
hPa
Rain
since 9 am
mm
Dir
 
Spd
km/h
Gust
km/h
Spd
kts
Gust
kts
27/11:30pm 16.8 14.7 12.5 76 2.4 SE 15 24 8 13 1012.6 1010.7 0.0
27/11:00pm 17.1 14.7 12.8 76 2.4 SE 17 28 9 15 1012.5 1010.6 0.0
27/10:30pm 17.3 14.9 12.8 75 2.6 SE 17 26 9 14 1012.4 1010.4 0.0
27/10:00pm 17.7 15.3 12.6 72 2.9 ESE 17 26 9 14 1012.1 1010.1 0.0
27/09:30pm 18.4 15.0 12.6 69 3.3 ESE 22 33 12 18 1011.5 1009.6 0.0
27/09:00pm 19.2 16.2 12.7 66 3.7 ESE 20 32 11 17 1011.3 1009.4 0.0
27/08:30pm 19.4 16.6 12.7 65 3.8 ESE 19 30 10 16 1011.1 1009.2 0.0
27/08:00pm 20.6 16.9 12.8 61 4.5 ESE 24 41 13 22 1010.9 1009.0 0.0
27/07:30pm 21.6 18.4 13.0 58 5.0 ESE 22 39 12 21 1010.5 1008.6 0.0
27/07:00pm 22.3 18.7 13.1 56 5.4 ESE 24 39 13 21 1010.0 1008.0 0.0
27/06:30pm 23.3 19.7 13.2 53 5.9 ESE 24 39 13 21 1009.5 1007.5 0.0
27/06:00pm 23.7 19.3 13.0 51 6.3 E 28 41 15 22 1009.2 1007.2 0.0
27/05:30pm 24.2 19.9 13.1 50 6.5 ESE 28 43 15 23 1008.8 1006.9 0.0
27/05:00pm 24.2 20.4 13.7 52 6.3 E 26 44 14 24 1009.0 1007.1 0.0
27/04:30pm 24.2 19.9 13.1 50 6.5 ESE 28 39 15 21 1008.9 1007.0 0.0
27/04:03pm 25.4 21.3 14.8 52 6.5 SE 30 48 16 26 1008.9 1007.0 0.0
27/04:00pm 24.4 19.6 13.9 52 6.3 ESE 32 48 17 26 1009.0 1007.1 0.0
27/03:30pm 25.6 22.1 14.4 50 6.8 ESE 26 37 14 20 1009.2 1007.2 0.0
27/03:00pm 25.1 22.2 13.9 49 6.7 ESE 22 37 12 20 1009.4 1007.4 0.0
27/02:30pm 25.9 23.2 14.7 50 6.8 SE 22 44 12 24 1009.4 1007.4 0.0
27/02:00pm 26.0 23.4 14.8 50 6.8 ESE 22 33 12 18 1009.7 1007.7 0.0
27/01:30pm 25.2 23.1 15.2 54 6.1 ESE 20 35 11 19 1010.3 1008.4 0.0
27/01:00pm 23.8 22.3 14.2 55 5.8 SE 15 22 8 12 1010.7 1008.8 0.0
27/12:30pm 23.9 22.0 14.3 55 5.8 SE 17 24 9 13 1010.9 1009.0 0.0
27/12:00pm 24.4 22.6 14.5 54 6.0 E 17 22 9 12 1011.0 1009.1 0.0
27/11:30am 23.9 21.2 14.6 56 5.6 ESE 22 32 12 17 1011.3 1009.4 0.0
27/11:00am 23.5 21.1 15.3 60 5.0 E 22 33 12 18 1011.5 1009.6 0.0
27/10:30am 22.7 19.7 13.7 56 5.3 ESE 22 32 12 17 1012.0 1010.0 0.0
27/10:00am 21.8 19.2 13.7 60 4.8 ESE 20 33 11 18 1012.3 1010.3 0.0
27/09:30am 20.8 17.3 13.3 62 4.4 ESE 24 35 13 19 1012.4 1010.4 0.0
27/09:00am 20.2 17.7 13.6 66 3.9 ESE 19 32 10 17 1012.4 1010.4 0.0
27/08:30am 19.3 16.1 13.0 67 3.6 SE 22 32 12 17 1012.4 1010.4 0.0
27/08:00am 18.4 15.7 13.0 71 3.1 ESE 19 32 10 17 1012.2 1010.2 0.0
27/07:30am 16.9 14.2 12.8 77 2.3 ESE 19 30 10 16 1012.0 1010.0 0.0
27/07:00am 16.3 13.5 12.7 79 2.0 SE 19 26 10 14 1011.7 1009.8 0.0
27/06:30am 15.8 13.4 12.5 81 1.8 SE 17 24 9 13 1011.4 1009.5 0.0
27/06:00am 15.6 13.1 12.4 81 1.8 SE 17 24 9 13 1011.4 1009.5 0.0
27/05:30am 15.6 13.5 12.4 81 1.8 SSE 15 22 8 12 1011.4 1009.5 0.0
27/05:00am 15.6 13.5 12.4 81 1.8 SE 15 20 8 11 1011.2 1009.3 0.0
27/04:30am 15.8 13.3 12.4 80 1.9 SE 17 26 9 14 1011.3 1009.4 0.0
27/04:00am 16.2 13.3 12.4 78 2.1 SE 19 28 10 15 1011.5 1009.6 0.0
27/03:30am 16.3 13.4 12.3 77 2.2 SE 19 28 10 15 1012.0 1010.0 0.0
27/03:00am 16.4 13.3 12.2 76 2.3 SE 20 30 11 16 1012.0 1010.0 0.0
27/02:30am 16.4 13.5 12.2 76 2.3 SE 19 26 10 14 1012.2 1010.2 0.0
27/02:00am 16.5 13.9 12.1 75 2.5 SE 17 26 9 14 1012.4 1010.4 0.0
27/01:30am 16.4 14.2 12.0 75 2.4 SE 15 24 8 13 1012.4 1010.4 0.0
27/01:00am 16.6 14.0 11.9 74 2.6 SE 17 22 9 12 1012.5 1010.6 0.0
27/12:30am 16.5 14.2 11.9 74 2.6 SE 15 24 8 13 1012.8 1010.9 0.0
27/12:00am 16.7 14.5 12.0 74 2.6 SE 15 24 8 13 1012.8 1010.9 0.0
 
Date/Time
EDT
Temp
°C
App
Temp
°C
Dew
Point
Rel
Hum
%
Delta-T
°C
Wind Press
QNH
hPa
Press
MSL
hPa
Rain
since 9 am
mm
Dir
 
Spd
km/h
Gust
km/h
Spd
kts
Gust
kts
26/11:30pm 16.6 14.0 11.9 74 2.6 SE 17 26 9 14 1013.0 1011.1 0.0
26/11:00pm 16.7 14.1 12.0 74 2.6 SSE 17 20 9 11 1012.9 1011.0 0.0
26/10:30pm 16.9 14.7 12.2 74 2.6 SE 15 22 8 12 1012.8 1010.9 0.0
26/10:00pm 17.3 14.4 12.4 73 2.8 SE 19 26 10 14 1012.6 1010.7 0.0
26/09:30pm 17.8 15.0 12.5 71 3.0 SE 19 30 10 16 1012.1 1010.1 0.0
26/09:00pm 18.3 14.9 12.5 69 3.3 SE 22 35 12 19 1011.6 1009.7 0.0
26/08:30pm 19.3 16.4 12.8 66 3.7 SE 20 35 11 19 1011.0 1009.1 0.0
26/08:00pm 20.4 16.4 13.1 63 4.2 ESE 26 43 14 23 1010.6 1008.7 0.0
26/07:30pm 21.9 17.7 13.5 59 4.9 ESE 28 39 15 21 1010.2 1008.3 0.0
26/07:00pm 23.3 19.6 14.0 56 5.5 ESE 26 43 14 23 1009.7 1007.7 0.0
26/06:30pm 24.9 21.6 14.1 51 6.5 ESE 24 37 13 20 1009.0 1007.1 0.0
26/06:00pm 26.6 22.9 14.0 46 7.6 SE 26 41 14 22 1008.7 1006.8 0.0
26/05:54pm 26.6 24.3 14.0 46 7.6 SSE 19 41 10 22 1008.6 1006.7 0.0
26/05:30pm 28.3 24.7 5.2 23 12.1 E 13 20 7 11 1008.6 1006.7 0.0
26/05:00pm 28.1 24.5 5.0 23 12.1 SE 13 19 7 10 1008.8 1006.9 0.0
26/04:30pm 28.2 25.6 6.3 25 11.7 ESE 9 13 5 7 1009.2 1007.2 0.0
26/04:00pm 28.0 25.4 6.2 25 11.7 NNW 9 15 5 8 1009.5 1007.5 0.0
26/03:30pm 28.4 26.4 7.1 26 11.6 N 7 15 4 8 1009.6 1007.6 0.0
26/03:00pm 27.9 24.3 6.6 26 11.5 N 15 20 8 11 1009.9 1007.9 0.0
26/02:30pm 28.2 26.2 8.5 29 11.0 S 9 30 5 16 1010.2 1008.3 0.0
26/02:00pm 26.4 23.7 5.4 26 11.0 NNE 9 13 5 7 1010.6 1008.7 0.0
26/01:30pm 26.2 23.9 7.3 30 10.2 ESE 9 17 5 9 1010.8 1008.9 0.0
26/01:00pm 25.6 22.0 5.2 27 10.6 N 13 19 7 10 1011.2 1009.3 0.0
26/12:30pm 25.6 23.8 7.2 31 9.9 WNW 6 15 3 8 1011.4 1009.5 0.0
26/12:00pm 24.8 23.1 8.3 35 9.0 SSE 7 13 4 7 1011.7 1009.8 0.0
26/11:30am 24.1 21.8 7.3 34 8.9 S 9 15 5 8 1011.8 1009.9 0.0

Other Formats:

Comma delimited format used in spreadsheet applications
http://www.bom.gov.au/fwo/IDN60801/IDN60801.94712.axf

JavaScript Object Notation format (JSON) in row-major order
http://www.bom.gov.au/fwo/IDN60801/IDN60801.94712.json